Time;durP1;ratioP1;P1;durP2;ratioP2;P2;SDS_P1;SDS_P2;PMS_P1;PMS_P2;Temp;Humidity;BMP_temperature;BMP_pressure;BME280_temperature;BME280_humidity;BME280_pressure;Samples;Min_cycle;Max_cycle;Signal;HPM_P1;HPM_P2
2021/03/10 00:00:15;;;;;;;35.55;20.48;;;3.70;99.90;;;;;;5027526;28;20116;-83
2021/03/10 00:02:41;;;;;;;38.35;22.58;;;3.70;99.90;;;;;;5029814;28;20481;-82
2021/03/10 00:05:08;;;;;;;44.67;23.92;;;3.80;99.90;;;;;;5027913;28;20052;-83
2021/03/10 00:07:34;;;;;;;41.53;22.98;;;3.70;99.90;;;;;;5045051;28;20128;-83
2021/03/10 00:10:00;;;;;;;46.95;24.40;;;3.70;99.90;;;;;;5028224;28;20043;-83
2021/03/10 00:12:27;;;;;;;43.58;23.48;;;3.70;99.90;;;;;;5027762;28;20397;-84
2021/03/10 00:14:52;;;;;;;39.38;23.27;;;3.80;99.90;;;;;;5044460;28;20489;-84
2021/03/10 00:17:18;;;;;;;50.33;24.92;;;3.60;99.90;;;;;;5043974;28;20068;-83
2021/03/10 00:19:44;;;;;;;44.60;24.95;;;3.70;99.90;;;;;;5044930;28;20072;-85
2021/03/10 00:22:11;;;;;;;41.83;23.42;;;3.70;99.90;;;;;;5043890;28;20068;-84
2021/03/10 00:24:37;;;;;;;49.22;25.10;;;3.70;99.90;;;;;;5044690;28;20041;-84
2021/03/10 00:27:03;;;;;;;43.92;22.92;;;3.70;99.90;;;;;;5027678;28;20473;-84
2021/03/10 00:29:32;;;;;;;44.20;24.75;;;3.70;99.90;;;;;;5041966;28;20065;-83
2021/03/10 00:31:58;;;;;;;44.58;24.30;;;3.70;99.90;;;;;;5045008;28;20044;-84
2021/03/10 00:34:24;;;;;;;45.38;25.15;;;3.70;99.90;;;;;;5029192;28;20508;-84
2021/03/10 00:36:49;;;;;;;39.30;23.67;;;3.70;99.90;;;;;;5044966;28;20045;-84
2021/03/10 00:39:15;;;;;;;41.05;24.52;;;3.70;99.90;;;;;;5044148;28;20445;-84
2021/03/10 00:41:41;;;;;;;43.92;24.15;;;3.60;99.90;;;;;;5044665;28;20152;-84
2021/03/10 00:44:07;;;;;;;40.05;23.27;;;3.60;99.90;;;;;;5027264;28;20061;-84
2021/03/10 00:46:33;;;;;;;38.17;21.95;;;3.60;99.90;;;;;;5044694;28;20075;-84
2021/03/10 00:49:01;;;;;;;44.05;23.42;;;3.70;99.90;;;;;;5028483;28;20052;-84
2021/03/10 00:51:27;;;;;;;35.90;22.30;;;3.70;99.90;;;;;;5043735;28;20061;-84
2021/03/10 00:53:55;;;;;;;36.63;22.27;;;3.70;99.90;;;;;;5027819;28;20050;-84
2021/03/10 00:56:21;;;;;;;38.67;21.88;;;3.70;99.90;;;;;;5027419;28;20483;-84
2021/03/10 00:58:49;;;;;;;32.35;21.20;;;3.70;99.90;;;;;;5028164;28;20046;-84
2021/03/10 01:01:18;;;;;;;36.47;21.30;;;3.70;99.90;;;;;;5040711;28;20047;-84
2021/03/10 01:03:44;;;;;;;38.20;21.67;;;3.70;99.90;;;;;;5027146;28;20034;-84
2021/03/10 01:06:10;;;;;;;36.22;22.85;;;3.70;99.90;;;;;;5027084;28;20064;-84
2021/03/10 01:08:38;;;;;;;34.30;21.65;;;3.70;99.90;;;;;;5024703;28;20493;-84
2021/03/10 01:11:04;;;;;;;37.28;23.10;;;3.70;99.90;;;;;;5027247;28;20042;-84
2021/03/10 01:13:30;;;;;;;34.22;21.92;;;3.70;99.90;;;;;;5043545;28;20109;-85
2021/03/10 01:15:55;;;;;;;41.50;22.05;;;3.70;99.90;;;;;;5044343;28;20095;-84
2021/03/10 01:18:24;;;;;;;38.20;22.08;;;3.60;99.90;;;;;;5036981;28;20873;-83
2021/03/10 01:20:50;;;;;;;37.58;21.63;;;3.60;99.90;;;;;;5020075;28;20053;-84
2021/03/10 01:23:16;;;;;;;36.40;21.65;;;3.70;99.90;;;;;;5026898;28;20125;-84
2021/03/10 01:25:42;;;;;;;38.28;22.33;;;3.70;99.90;;;;;;5027747;28;20081;-84
2021/03/10 01:28:08;;;;;;;38.63;21.20;;;3.60;99.90;;;;;;5043437;28;20065;-84
2021/03/10 01:30:34;;;;;;;35.13;20.98;;;3.60;99.90;;;;;;5027919;28;20053;-84
2021/03/10 01:32:59;;;;;;;36.92;21.13;;;3.60;99.90;;;;;;5027107;28;20115;-84
2021/03/10 01:35:25;;;;;;;33.97;20.58;;;3.60;99.90;;;;;;5020847;28;20046;-84
2021/03/10 01:37:51;;;;;;;32.33;21.55;;;3.60;99.90;;;;;;5037344;28;20053;-84
2021/03/10 01:40:18;;;;;;;32.53;19.95;;;3.60;99.90;;;;;;5045564;28;20095;-84
2021/03/10 01:42:45;;;;;;;32.15;20.25;;;3.60;99.90;;;;;;5031133;28;20050;-84
2021/03/10 01:45:14;;;;;;;37.83;21.50;;;3.60;99.90;;;;;;5047178;28;20048;-84
2021/03/10 01:47:45;;;;;;;34.35;21.80;;;3.60;99.90;;;;;;5030969;28;20053;-84
2021/03/10 01:50:15;;;;;;;35.33;21.30;;;3.60;99.90;;;;;;5031650;28;20481;-84
2021/03/10 01:52:40;;;;;;;36.47;21.50;;;3.60;99.90;;;;;;5030703;28;20060;-84
2021/03/10 01:55:07;;;;;;;36.03;20.67;;;3.60;99.90;;;;;;5046780;28;20037;-84
2021/03/10 01:57:34;;;;;;;40.47;23.52;;;3.60;99.90;;;;;;5047141;28;20637;-84
2021/03/10 02:00:00;;;;;;;37.20;22.40;;;3.70;99.90;;;;;;5031200;28;20068;-84
2021/03/10 02:02:27;;;;;;;34.33;21.13;;;3.70;99.90;;;;;;5029823;28;20044;-84
2021/03/10 02:04:55;;;;;;;35.65;20.88;;;3.70;99.90;;;;;;5047340;28;20481;-84
2021/03/10 02:07:43;;;;;;;36.17;22.17;;;3.80;99.90;;;;;;5031180;28;20046;-84
2021/03/10 02:10:19;;;;;;;33.22;21.35;;;3.70;99.90;;;;;;5016940;28;20413;-84
2021/03/10 02:12:50;;;;;;;39.20;22.02;;;3.70;99.90;;;;;;5047101;28;20532;-84
2021/03/10 02:15:28;;;;;;;37.13;21.05;;;3.60;99.90;;;;;;5046821;28;20494;-84
2021/03/10 02:18:01;;;;;;;37.88;22.45;;;3.50;99.90;;;;;;5030287;28;20033;-84
2021/03/10 02:20:36;;;;;;;42.05;24.02;;;3.50;99.90;;;;;;5030006;28;20095;-84
2021/03/10 02:23:49;;;;;;;38.78;23.70;;;3.50;99.90;;;;;;5031472;28;20552;-84
2021/03/10 02:26:53;;;;;;;43.95;23.52;;;3.50;99.90;;;;;;4988834;28;20134;-84
2021/03/10 02:29:21;;;;;;;43.13;24.05;;;3.50;99.90;;;;;;5029137;28;20060;-84
2021/03/10 02:31:49;;;;;;;45.50;25.17;;;3.40;99.90;;;;;;5030377;28;20382;-84
2021/03/10 02:34:17;;;;;;;43.17;25.52;;;3.40;99.90;;;;;;5029411;28;20044;-84
2021/03/10 02:36:48;;;;;;;49.70;26.83;;;3.40;99.90;;;;;;5030084;28;20037;-84
2021/03/10 02:39:21;;;;;;;50.13;26.33;;;3.50;99.90;;;;;;5029330;28;20042;-84
2021/03/10 02:41:47;;;;;;;47.63;26.92;;;3.40;99.90;;;;;;5031294;28;20131;-84
2021/03/10 02:44:14;;;;;;;48.38;26.65;;;3.40;99.90;;;;;;5029881;28;20113;-85
2021/03/10 02:46:42;;;;;;;44.70;26.98;;;3.40;99.90;;;;;;5029810;28;20404;-84
2021/03/10 02:49:08;;;;;;;46.17;25.23;;;3.40;99.90;;;;;;5029516;28;20046;-84
2021/03/10 02:51:37;;;;;;;48.10;26.23;;;3.40;99.90;;;;;;5029042;28;20049;-84
2021/03/10 02:54:04;;;;;;;49.38;27.17;;;3.40;99.90;;;;;;5046267;28;20057;-84
2021/03/10 02:56:31;;;;;;;50.80;26.83;;;3.40;99.90;;;;;;5028869;28;20049;-84
2021/03/10 02:58:57;;;;;;;54.28;27.67;;;3.30;99.90;;;;;;5029749;28;20045;-84
2021/03/10 03:01:23;;;;;;;52.88;29.00;;;3.30;99.90;;;;;;5045333;28;20041;-84
2021/03/10 03:03:49;;;;;;;57.10;28.80;;;3.30;99.90;;;;;;5029469;28;20034;-84
2021/03/10 03:06:15;;;;;;;62.17;29.58;;;3.30;99.90;;;;;;5029691;28;20067;-84
2021/03/10 03:08:41;;;;;;;61.08;30.75;;;3.30;99.90;;;;;;5059665;28;20627;-84
2021/03/10 03:11:07;;;;;;;58.47;31.45;;;3.20;99.90;;;;;;5032185;28;20053;-84
2021/03/10 03:13:34;;;;;;;59.90;31.23;;;3.30;99.90;;;;;;5045440;28;20493;-85
2021/03/10 03:16:04;;;;;;;57.35;30.02;;;3.20;99.90;;;;;;5028812;28;20483;-84
2021/03/10 03:18:30;;;;;;;69.38;32.03;;;3.20;99.90;;;;;;5044134;28;20041;-84
2021/03/10 03:21:00;;;;;;;63.75;32.15;;;3.20;99.90;;;;;;5028954;28;20555;-84
2021/03/10 03:23:26;;;;;;;68.28;31.27;;;3.30;99.90;;;;;;5008462;28;20053;-84
2021/03/10 03:25:53;;;;;;;64.10;30.42;;;3.20;99.90;;;;;;5030492;28;20045;-83
2021/03/10 03:28:21;;;;;;;66.70;32.80;;;3.20;99.90;;;;;;5028039;28;20046;-84
2021/03/10 03:30:49;;;;;;;68.68;32.42;;;3.20;99.90;;;;;;5028678;28;20508;-84
2021/03/10 03:33:18;;;;;;;78.20;34.00;;;3.20;99.90;;;;;;5043687;28;20161;-85
2021/03/10 03:35:46;;;;;;;61.65;30.95;;;3.10;99.90;;;;;;5030131;28;20112;-84
2021/03/10 03:38:12;;;;;;;63.13;31.35;;;3.20;99.90;;;;;;5029946;28;20048;-84
2021/03/10 03:40:39;;;;;;;75.38;34.72;;;3.10;99.90;;;;;;5029519;28;20085;-84
2021/03/10 03:43:11;;;;;;;66.05;33.20;;;3.10;99.90;;;;;;5045701;28;20076;-84
2021/03/10 03:45:37;;;;;;;66.97;32.95;;;3.10;99.90;;;;;;5027810;28;20037;-84
2021/03/10 03:48:04;;;;;;;64.68;31.90;;;3.10;99.90;;;;;;5044476;28;20124;-84
2021/03/10 03:50:31;;;;;;;68.95;34.40;;;3.10;99.90;;;;;;5027669;28;20064;-84
2021/03/10 03:52:57;;;;;;;69.78;34.55;;;3.20;99.90;;;;;;5028011;28;20049;-84
2021/03/10 03:55:23;;;;;;;74.43;34.13;;;3.10;99.90;;;;;;5043747;28;20037;-84
2021/03/10 03:57:49;;;;;;;78.35;36.25;;;3.10;99.90;;;;;;5028437;28;20452;-84
2021/03/10 04:00:18;;;;;;;72.90;35.63;;;3.10;99.90;;;;;;5028383;28;20084;-84
2021/03/10 04:02:47;;;;;;;73.57;35.15;;;3.10;99.90;;;;;;5027750;28;20124;-85
2021/03/10 04:05:18;;;;;;;71.25;32.95;;;3.10;99.90;;;;;;5028430;28;20128;-85
2021/03/10 04:07:51;;;;;;;61.00;30.48;;;3.10;99.90;;;;;;5044473;28;20061;-84
2021/03/10 04:10:19;;;;;;;60.13;29.80;;;3.10;99.90;;;;;;5022753;28;20055;-85
2021/03/10 04:12:45;;;;;;;61.55;30.85;;;3.10;99.90;;;;;;5044073;28;20037;-82
2021/03/10 04:15:15;;;;;;;69.35;32.47;;;3.10;99.90;;;;;;5045046;28;20049;-83
2021/03/10 04:17:40;;;;;;;56.13;29.42;;;3.10;99.90;;;;;;5027831;28;20037;-82
2021/03/10 04:20:09;;;;;;;58.42;28.77;;;3.10;99.90;;;;;;5028084;28;20049;-82
2021/03/10 04:22:35;;;;;;;51.03;27.23;;;3.20;99.90;;;;;;5028652;28;20045;-82
2021/03/10 04:25:01;;;;;;;56.63;28.30;;;3.20;99.90;;;;;;5028305;28;20493;-83
2021/03/10 04:27:26;;;;;;;50.95;26.23;;;3.20;99.90;;;;;;5027466;28;20042;-83
2021/03/10 04:29:52;;;;;;;46.75;24.80;;;3.30;99.90;;;;;;5008676;28;20046;-82
2021/03/10 04:32:18;;;;;;;50.58;27.50;;;3.20;99.90;;;;;;4995229;28;20065;-83
2021/03/10 04:34:44;;;;;;;55.88;28.48;;;3.20;99.90;;;;;;5043662;28;20045;-83
2021/03/10 04:37:09;;;;;;;62.97;30.38;;;3.10;99.90;;;;;;5028446;28;20088;-83
2021/03/10 04:39:35;;;;;;;53.53;28.90;;;3.10;99.90;;;;;;5028303;28;20042;-83
2021/03/10 04:42:01;;;;;;;56.45;28.83;;;3.00;99.90;;;;;;5027924;28;20053;-82
2021/03/10 04:44:27;;;;;;;51.42;28.15;;;3.00;99.90;;;;;;5027511;28;20091;-84
2021/03/10 04:46:53;;;;;;;61.70;29.42;;;3.00;99.90;;;;;;5028118;28;20045;-83
2021/03/10 04:49:18;;;;;;;59.30;28.65;;;3.00;99.90;;;;;;5044200;28;20053;-83
2021/03/10 04:51:44;;;;;;;62.85;30.00;;;2.90;99.90;;;;;;5010650;28;20106;-84
2021/03/10 04:54:10;;;;;;;61.67;29.80;;;2.80;99.90;;;;;;5027594;28;20056;-83
2021/03/10 04:56:36;;;;;;;60.05;30.17;;;2.80;99.90;;;;;;5026998;28;20544;-83
2021/03/10 04:59:01;;;;;;;57.33;29.27;;;2.70;99.90;;;;;;5044239;28;20054;-83
2021/03/10 05:01:27;;;;;;;65.82;30.27;;;2.60;99.90;;;;;;5043475;28;20052;-84
2021/03/10 05:03:53;;;;;;;66.30;31.02;;;2.60;99.90;;;;;;5027813;28;20433;-84
2021/03/10 05:06:19;;;;;;;63.88;30.90;;;2.50;99.90;;;;;;5044410;28;20048;-83
2021/03/10 05:08:45;;;;;;;63.72;31.73;;;2.50;99.90;;;;;;5027866;28;20045;-83
2021/03/10 05:11:11;;;;;;;72.00;32.33;;;2.40;99.90;;;;;;5043958;28;20436;-84
2021/03/10 05:13:36;;;;;;;65.05;30.63;;;2.40;99.90;;;;;;5043720;28;20433;-83
2021/03/10 05:16:05;;;;;;;64.53;32.13;;;2.30;99.90;;;;;;5031476;28;20045;-84
2021/03/10 05:18:31;;;;;;;65.85;32.58;;;2.30;99.90;;;;;;5047709;28;20107;-84
2021/03/10 05:21:00;;;;;;;78.20;34.03;;;2.30;99.90;;;;;;5032109;28;20038;-84
2021/03/10 05:23:25;;;;;;;72.47;31.88;;;2.30;99.90;;;;;;5032196;28;20682;-85
2021/03/10 05:25:51;;;;;;;65.97;31.55;;;2.30;99.90;;;;;;5047828;28;20046;-84
2021/03/10 05:28:17;;;;;;;70.55;33.05;;;2.30;99.90;;;;;;5031820;28;20382;-83
2021/03/10 05:30:43;;;;;;;68.15;32.67;;;2.30;99.90;;;;;;5030181;28;20152;-83
2021/03/10 05:33:08;;;;;;;62.45;28.67;;;2.20;99.90;;;;;;5014802;28;20042;-83
2021/03/10 05:35:34;;;;;;;76.72;32.08;;;2.20;99.90;;;;;;5046820;28;20060;-83
2021/03/10 05:38:00;;;;;;;74.95;31.65;;;2.20;99.90;;;;;;5030852;28;20038;-83
2021/03/10 05:40:30;;;;;;;72.00;34.65;;;2.20;99.90;;;;;;5030986;28;20156;-86
2021/03/10 05:42:56;;;;;;;71.60;31.70;;;2.20;99.90;;;;;;5030940;28;20053;-83
2021/03/10 05:45:22;;;;;;;66.68;30.95;;;2.10;99.90;;;;;;5031204;28;20045;-83
2021/03/10 05:47:51;;;;;;;60.83;28.90;;;2.10;99.90;;;;;;5030737;28;20266;-84
2021/03/10 05:50:17;;;;;;;62.47;30.23;;;2.10;99.90;;;;;;5030719;28;20077;-84
2021/03/10 05:52:47;;;;;;;66.20;29.42;;;2.00;99.90;;;;;;5029792;28;20041;-83
2021/03/10 05:55:14;;;;;;;63.40;30.57;;;2.00;99.90;;;;;;5014548;28;20053;-83
2021/03/10 05:57:41;;;;;;;60.75;30.10;;;2.00;99.90;;;;;;5031235;28;20042;-83
2021/03/10 06:00:10;;;;;;;53.72;28.02;;;2.00;99.90;;;;;;5030302;28;20076;-83
2021/03/10 06:02:35;;;;;;;65.65;32.13;;;2.00;99.90;;;;;;5046506;28;20029;-83
2021/03/10 06:05:01;;;;;;;63.50;31.58;;;2.00;99.90;;;;;;5046625;28;20107;-83
2021/03/10 06:07:30;;;;;;;75.00;32.72;;;2.00;99.90;;;;;;5046704;28;20048;-84
2021/03/10 06:10:06;;;;;;;80.82;34.53;;;2.10;99.90;;;;;;5021416;28;20379;-84
2021/03/10 06:12:43;;;;;;;78.35;35.10;;;2.00;99.90;;;;;;5047500;28;20052;-85
2021/03/10 06:15:10;;;;;;;86.30;36.13;;;2.00;99.90;;;;;;5030785;28;20041;-83
2021/03/10 06:17:50;;;;;;;94.88;37.53;;;2.00;99.90;;;;;;5029109;28;20124;-84
2021/03/10 06:20:26;;;;;;;93.63;38.20;;;2.00;99.90;;;;;;5029439;28;20045;-83
2021/03/10 06:22:53;;;;;;;101.13;38.83;;;2.10;99.90;;;;;;5046715;28;20124;-83
2021/03/10 06:25:20;;;;;;;110.72;41.58;;;2.00;99.90;;;;;;5035354;28;20155;-84
2021/03/10 06:27:56;;;;;;;107.93;41.55;;;2.10;99.90;;;;;;5030310;28;20050;-84
2021/03/10 06:30:41;;;;;;;119.63;41.45;;;2.10;99.90;;;;;;5003498;28;20060;-84
2021/03/10 06:33:08;;;;;;;103.13;39.92;;;2.20;99.90;;;;;;5034000;28;20045;-84
2021/03/10 06:35:35;;;;;;;121.63;42.92;;;2.20;99.90;;;;;;5046161;28;20546;-84
2021/03/10 06:38:15;;;;;;;93.00;38.03;;;2.20;99.90;;;;;;5025153;28;20125;-84
2021/03/10 06:40:51;;;;;;;98.25;35.80;;;2.20;99.90;;;;;;5049336;28;20480;-84
2021/03/10 06:43:18;;;;;;;113.55;42.70;;;2.30;99.90;;;;;;5050385;28;20033;-84
2021/03/10 06:45:44;;;;;;;105.60;42.10;;;2.40;99.90;;;;;;5050564;28;20394;-85
2021/03/10 06:48:23;;;;;;;108.70;40.85;;;2.40;99.90;;;;;;5029906;28;20064;-84
2021/03/10 06:50:49;;;;;;;113.78;41.28;;;2.40;99.90;;;;;;5042116;28;20481;-84
2021/03/10 06:53:16;;;;;;;103.63;42.42;;;2.50;99.90;;;;;;5029039;28;20061;-85
2021/03/10 06:55:44;;;;;;;97.40;40.28;;;2.50;99.90;;;;;;5020983;28;20041;-84
2021/03/10 06:58:20;;;;;;;98.43;42.15;;;2.60;99.90;;;;;;5027823;28;20065;-84
2021/03/10 07:00:46;;;;;;;99.88;42.13;;;2.60;99.90;;;;;;5046104;28;20042;-84
2021/03/10 07:03:13;;;;;;;93.60;39.70;;;2.60;99.90;;;;;;5041371;28;20123;-84
2021/03/10 07:05:40;;;;;;;95.60;37.55;;;2.70;99.90;;;;;;5041199;28;20045;-84
2021/03/10 07:08:07;;;;;;;95.88;41.10;;;2.70;99.90;;;;;;5035757;28;20751;-84
2021/03/10 07:10:33;;;;;;;90.53;38.70;;;2.80;99.90;;;;;;5034041;28;20052;-84
2021/03/10 07:12:59;;;;;;;83.32;37.30;;;2.90;99.90;;;;;;5012632;28;20433;-84
2021/03/10 07:15:26;;;;;;;86.35;38.22;;;2.90;99.90;;;;;;5029471;28;20037;-84
2021/03/10 07:17:53;;;;;;;77.85;36.13;;;2.90;99.90;;;;;;5028552;28;20046;-84
2021/03/10 07:20:20;;;;;;;77.45;36.20;;;2.90;99.90;;;;;;5028893;28;20060;-84
2021/03/10 07:23:09;;;;;;;69.05;33.63;;;3.00;99.90;;;;;;5044705;28;20043;-84
2021/03/10 07:25:42;;;;;;;68.10;33.70;;;3.00;99.90;;;;;;5026624;28;20443;-85
2021/03/10 07:28:18;;;;;;;56.70;29.95;;;3.10;99.90;;;;;;5032786;28;20073;-84
2021/03/10 07:30:48;;;;;;;62.17;31.52;;;3.10;99.90;;;;;;5029941;28;20040;-84
2021/03/10 07:33:21;;;;;;;63.13;31.80;;;3.20;99.90;;;;;;5029460;28;20061;-85
2021/03/10 07:35:48;;;;;;;61.28;32.25;;;3.20;99.90;;;;;;5042891;28;20128;-85
2021/03/10 07:38:17;;;;;;;51.88;29.50;;;3.30;99.90;;;;;;5032106;28;20038;-84
2021/03/10 07:40:58;;;;;;;55.92;28.73;;;3.30;99.90;;;;;;5014053;28;20038;-84
2021/03/10 07:43:34;;;;;;;;;;;3.30;99.90;;;;;;5042187;28;20398;-84
2021/03/10 07:46:04;;;;;;;50.47;29.45;;;3.30;99.90;;;;;;5044753;28;19926;-85
2021/03/10 07:48:34;;;;;;;51.47;27.58;;;3.40;99.90;;;;;;5015154;28;20034;-84
2021/03/10 07:51:00;;;;;;;53.88;29.25;;;3.50;99.90;;;;;;5012315;28;20180;-85
2021/03/10 07:53:37;;;;;;;58.33;27.85;;;3.50;99.90;;;;;;5031027;28;20126;-85
2021/03/10 07:56:04;;;;;;;46.25;26.75;;;3.50;99.90;;;;;;5028576;28;20107;-85
2021/03/10 07:58:31;;;;;;;46.38;26.77;;;3.60;99.90;;;;;;5061734;28;20033;-86
2021/03/10 08:00:58;;;;;;;43.45;25.50;;;3.60;99.90;;;;;;5044419;28;20694;-86
2021/03/10 08:03:32;;;;;;;41.15;24.17;;;3.60;99.90;;;;;;5046769;28;20037;-86
2021/03/10 08:06:05;;;;;;;40.65;24.90;;;3.70;99.90;;;;;;5028053;28;20029;-87
2021/03/10 08:08:40;;;;;;;49.03;26.05;;;3.70;99.90;;;;;;5047130;28;20052;-85
2021/03/10 08:11:11;;;;;;;42.85;24.40;;;3.80;99.90;;;;;;5043861;28;20040;-85
2021/03/10 08:13:37;;;;;;;39.13;23.40;;;3.90;99.90;;;;;;5064506;28;20095;-85
2021/03/10 08:16:04;;;;;;;43.45;24.25;;;3.90;99.90;;;;;;5046383;28;20049;-85
2021/03/10 08:18:33;;;;;;;39.97;23.52;;;4.00;99.90;;;;;;5040285;28;20135;-85
2021/03/10 08:21:09;;;;;;;38.20;23.80;;;4.00;99.90;;;;;;5044163;28;20037;-85
2021/03/10 08:23:35;;;;;;;36.08;20.27;;;4.10;99.90;;;;;;5054282;28;20041;-87
2021/03/10 08:26:03;;;;;;;39.40;24.92;;;4.20;99.90;;;;;;5024400;28;20150;-87
2021/03/10 08:28:36;;;;;;;36.92;22.65;;;4.20;99.90;;;;;;5044746;28;20037;-87
2021/03/10 08:31:04;;;;;;;37.92;23.15;;;4.20;99.90;;;;;;5032733;28;20042;-87
2021/03/10 08:33:31;;;;;;;34.33;22.27;;;4.30;99.90;;;;;;5048625;28;20132;-87
2021/03/10 08:35:57;;;;;;;36.30;21.77;;;4.30;99.90;;;;;;5027949;28;20037;-87
2021/03/10 08:38:29;;;;;;;34.95;22.10;;;4.40;99.90;;;;;;5049560;28;20043;-87
2021/03/10 08:41:05;;;;;;;34.25;21.75;;;4.40;99.90;;;;;;5024231;28;20048;-87
2021/03/10 08:43:31;;;;;;;30.83;20.88;;;4.50;99.90;;;;;;5033015;28;20476;-87
2021/03/10 08:45:58;;;;;;;32.15;19.88;;;4.60;99.90;;;;;;5026439;28;20454;-87
2021/03/10 08:48:25;;;;;;;32.33;19.55;;;4.60;99.90;;;;;;5047666;28;20074;-87
2021/03/10 08:50:51;;;;;;;30.27;18.38;;;4.60;99.90;;;;;;5044122;28;20045;-87
2021/03/10 08:53:17;;;;;;;26.30;17.42;;;4.70;99.90;;;;;;5025380;28;20056;-87
2021/03/10 08:55:43;;;;;;;26.85;18.65;;;4.70;99.90;;;;;;5031468;28;20041;-87
2021/03/10 08:58:18;;;;;;;31.00;18.60;;;4.80;99.90;;;;;;5038330;28;20524;-87
2021/03/10 09:00:44;;;;;;;28.67;18.25;;;4.80;99.90;;;;;;5044665;28;20096;-88
2021/03/10 09:03:14;;;;;;;27.08;17.50;;;4.90;99.90;;;;;;5014451;28;20440;-87
2021/03/10 09:05:41;;;;;;;29.30;18.13;;;4.90;99.90;;;;;;5033574;28;20032;-87
2021/03/10 09:08:09;;;;;;;26.75;18.00;;;5.00;99.90;;;;;;5039871;28;20463;-88
2021/03/10 09:10:37;;;;;;;26.60;17.88;;;5.10;99.90;;;;;;5015702;28;20042;-87
2021/03/10 09:13:03;;;;;;;31.55;17.65;;;5.20;99.90;;;;;;5026036;28;20231;-87
2021/03/10 09:15:31;;;;;;;26.33;17.90;;;5.10;99.90;;;;;;5026754;28;20160;-87
2021/03/10 09:18:05;;;;;;;24.77;16.50;;;5.30;99.90;;;;;;5042173;28;20068;-87
2021/03/10 09:20:41;;;;;;;25.33;16.77;;;5.40;99.90;;;;;;5027115;28;20096;-86
2021/03/10 09:23:08;;;;;;;23.20;15.60;;;5.40;99.90;;;;;;5025302;28;20053;-86
2021/03/10 09:25:38;;;;;;;25.27;17.27;;;5.50;99.90;;;;;;5034194;28;20409;-86
2021/03/10 09:28:10;;;;;;;21.90;15.43;;;5.60;99.90;;;;;;5048219;28;20045;-87
2021/03/10 09:30:47;;;;;;;24.63;15.15;;;5.70;99.90;;;;;;5044102;28;20045;-86
2021/03/10 09:33:31;;;;;;;22.88;16.30;;;5.70;99.90;;;;;;5057009;28;20041;-86
2021/03/10 09:35:59;;;;;;;22.63;14.60;;;5.80;99.90;;;;;;5054008;28;20107;-87
2021/03/10 09:38:26;;;;;;;29.17;16.33;;;5.90;99.90;;;;;;5058343;28;20037;-87
2021/03/10 09:40:53;;;;;;;23.73;16.10;;;6.00;99.90;;;;;;5040829;28;20059;-87
2021/03/10 09:43:22;;;;;;;21.35;14.45;;;6.00;99.90;;;;;;5054644;28;20033;-86
2021/03/10 09:45:49;;;;;;;20.92;13.98;;;6.10;99.90;;;;;;5042234;28;20049;-89
2021/03/10 09:48:35;;;;;;;21.77;14.27;;;6.10;99.90;;;;;;5054677;28;20569;-87
2021/03/10 09:51:15;;;;;;;22.25;14.32;;;6.20;99.90;;;;;;5058006;28;20504;-87
2021/03/10 09:53:49;;;;;;;25.10;14.70;;;6.30;99.90;;;;;;5057148;28;20496;-86
2021/03/10 09:56:18;;;;;;;30.25;14.60;;;6.40;99.90;;;;;;5056571;28;20078;-86
2021/03/10 09:58:54;;;;;;;19.58;13.70;;;6.40;99.90;;;;;;5022903;28;20053;-86
2021/03/10 10:01:21;;;;;;;21.90;14.52;;;6.40;99.90;;;;;;5045582;28;20171;-87
2021/03/10 10:03:46;;;;;;;21.02;14.35;;;6.40;99.90;;;;;;5026662;28;20041;-87
2021/03/10 10:06:16;;;;;;;23.65;14.90;;;6.50;99.90;;;;;;5012835;28;20409;-87
2021/03/10 10:08:43;;;;;;;22.00;15.05;;;6.60;99.90;;;;;;5062712;28;20055;-87
2021/03/10 10:11:12;;;;;;;23.63;15.40;;;6.70;99.90;;;;;;5013259;28;20688;-86
2021/03/10 10:13:41;;;;;;;23.85;15.13;;;6.70;99.90;;;;;;5036016;28;20037;-87
2021/03/10 10:16:08;;;;;;;23.90;15.98;;;6.80;99.90;;;;;;5041849;28;20413;-87
2021/03/10 10:18:35;;;;;;;25.95;14.05;;;6.80;99.90;;;;;;5054647;28;20084;-87
2021/03/10 10:21:02;;;;;;;24.92;15.38;;;6.90;99.90;;;;;;5030221;28;20128;-87
2021/03/10 10:23:28;;;;;;;22.73;15.35;;;6.90;99.90;;;;;;5043773;28;20048;-87
2021/03/10 10:25:54;;;;;;;25.83;16.75;;;7.10;99.90;;;;;;5028523;28;20041;-87
2021/03/10 10:28:21;;;;;;;24.90;17.02;;;7.20;99.90;;;;;;5027068;28;20128;-87
2021/03/10 10:30:47;;;;;;;26.13;18.05;;;7.30;99.90;;;;;;5041756;28;20046;-87
2021/03/10 10:33:13;;;;;;;27.23;17.27;;;7.30;99.90;;;;;;5012526;28;20049;-86
2021/03/10 10:35:39;;;;;;;27.50;18.23;;;7.30;99.90;;;;;;5025614;28;20057;-87
2021/03/10 10:38:07;;;;;;;31.35;18.60;;;7.40;99.90;;;;;;5029424;28;20495;-87
2021/03/10 10:40:34;;;;;;;25.40;18.00;;;7.50;99.90;;;;;;5039500;28;20482;-87
2021/03/10 10:43:00;;;;;;;24.67;16.90;;;7.50;99.90;;;;;;5038242;28;20042;-87
2021/03/10 10:45:25;;;;;;;31.75;18.38;;;7.70;99.90;;;;;;5026962;28;20056;-87
2021/03/10 10:47:51;;;;;;;30.40;18.33;;;7.70;99.90;;;;;;5025298;28;20048;-87
2021/03/10 10:50:17;;;;;;;30.83;18.48;;;7.80;99.90;;;;;;5008330;28;20088;-87
2021/03/10 10:52:44;;;;;;;27.92;18.73;;;7.80;99.90;;;;;;5042236;28;20444;-87
2021/03/10 10:55:13;;;;;;;27.30;18.65;;;7.80;99.90;;;;;;5032142;28;20036;-87
2021/03/10 10:57:39;;;;;;;34.33;19.30;;;8.00;99.90;;;;;;5051286;28;20045;-87
2021/03/10 11:00:09;;;;;;;25.67;17.98;;;8.10;99.90;;;;;;5028902;28;20050;-86
2021/03/10 11:02:36;;;;;;;30.23;20.58;;;8.10;99.90;;;;;;5029024;28;20045;-88
2021/03/10 11:05:04;;;;;;;29.50;19.52;;;8.20;99.90;;;;;;5038596;28;20057;-89
2021/03/10 11:07:29;;;;;;;29.85;19.38;;;8.10;99.90;;;;;;5025748;28;20034;-88
2021/03/10 11:09:55;;;;;;;29.52;19.73;;;8.10;99.90;;;;;;5025010;28;20041;-88
2021/03/10 11:12:24;;;;;;;30.90;20.13;;;8.10;99.90;;;;;;5021547;28;20038;-88
2021/03/10 11:14:49;;;;;;;32.55;20.25;;;8.10;99.90;;;;;;5027926;28;20057;-88
2021/03/10 11:17:16;;;;;;;30.88;19.92;;;8.00;99.90;;;;;;5059931;28;20120;-89
2021/03/10 11:19:42;;;;;;;32.88;21.05;;;7.90;99.90;;;;;;5033465;28;20120;-88
2021/03/10 11:22:07;;;;;;;33.08;20.90;;;8.00;99.90;;;;;;5060278;28;20528;-88
2021/03/10 11:24:36;;;;;;;30.00;20.20;;;8.10;99.90;;;;;;5051943;28;20116;-87
2021/03/10 11:27:03;;;;;;;35.00;20.50;;;8.10;99.90;;;;;;5040247;28;20055;-87
2021/03/10 11:29:29;;;;;;;34.38;22.98;;;8.00;99.90;;;;;;5033570;28;20042;-87
2021/03/10 11:31:55;;;;;;;34.22;22.05;;;8.00;99.90;;;;;;5024830;28;20072;-87
2021/03/10 11:34:21;;;;;;;33.97;21.10;;;8.10;99.90;;;;;;5044441;28;20562;-87
2021/03/10 11:36:47;;;;;;;32.17;21.27;;;8.10;99.90;;;;;;5033259;28;20037;-86
2021/03/10 11:39:15;;;;;;;36.08;22.13;;;8.10;99.90;;;;;;5044910;28;20058;-86
2021/03/10 11:41:40;;;;;;;30.90;21.42;;;8.00;99.90;;;;;;5026996;28;20034;-87
2021/03/10 11:44:07;;;;;;;36.20;22.52;;;7.90;99.90;;;;;;5019726;28;20510;-88
2021/03/10 11:46:33;;;;;;;33.17;19.77;;;7.90;99.90;;;;;;5054451;28;20045;-87
2021/03/10 11:48:59;;;;;;;32.75;21.55;;;7.90;99.90;;;;;;5053743;28;20068;-88
2021/03/10 11:51:25;;;;;;;33.25;22.67;;;8.00;99.90;;;;;;5052627;28;20485;-87
2021/03/10 11:53:52;;;;;;;33.83;22.42;;;8.00;99.90;;;;;;5058099;28;20098;-87
2021/03/10 11:56:18;;;;;;;34.28;22.20;;;8.10;99.90;;;;;;5042707;28;20114;-87
2021/03/10 11:58:44;;;;;;;33.05;21.88;;;8.10;99.90;;;;;;5008657;28;20046;-87
2021/03/10 12:01:09;;;;;;;34.22;23.85;;;8.10;99.90;;;;;;5042298;28;20757;-87
2021/03/10 12:03:37;;;;;;;37.03;23.48;;;8.20;99.90;;;;;;5025443;28;20045;-87
2021/03/10 12:06:04;;;;;;;37.72;23.20;;;8.10;99.90;;;;;;5037410;28;20077;-88
2021/03/10 12:08:30;;;;;;;33.10;23.90;;;8.10;99.90;;;;;;5059245;28;20061;-87
2021/03/10 12:10:56;;;;;;;37.00;24.90;;;8.20;99.90;;;;;;5016523;28;20041;-87
2021/03/10 12:13:25;;;;;;;38.38;24.85;;;8.20;99.90;;;;;;5026973;28;20037;-87
2021/03/10 12:15:52;;;;;;;40.17;24.33;;;8.20;99.90;;;;;;5027713;28;20041;-87
2021/03/10 12:18:18;;;;;;;39.85;22.77;;;8.10;99.90;;;;;;5043384;28;20045;-87
2021/03/10 12:20:44;;;;;;;41.97;23.20;;;8.10;99.90;;;;;;5027240;28;20842;-87
2021/03/10 12:23:10;;;;;;;36.05;23.67;;;8.10;99.90;;;;;;5007136;28;20522;-87
2021/03/10 12:25:35;;;;;;;46.53;23.02;;;8.10;99.90;;;;;;5026962;28;20052;-87
2021/03/10 12:28:01;;;;;;;37.15;23.65;;;8.00;99.90;;;;;;5010726;28;20750;-87
2021/03/10 12:30:29;;;;;;;38.92;23.10;;;8.00;99.90;;;;;;5026878;28;20115;-87
2021/03/10 12:32:54;;;;;;;39.35;24.20;;;8.00;99.90;;;;;;5027276;28;20591;-87
2021/03/10 12:35:23;;;;;;;39.35;24.35;;;8.00;99.90;;;;;;5043002;28;20069;-87
2021/03/10 12:37:48;;;;;;;37.17;23.80;;;8.00;99.90;;;;;;5026997;28;20496;-87
2021/03/10 12:40:14;;;;;;;40.30;24.63;;;7.90;99.90;;;;;;5026900;28;20053;-87